sensor_id;sensor_type;location;lat;lon;timestamp;pressure;altitude;pressure_sealevel;temperature;humidity
20971;BME280;10644;48.834;10.088;2022-09-13T00:01:10;96337.69;;;19.00;59.01
20971;BME280;10644;48.834;10.088;2022-09-13T00:03:46;96338.75;;;19.07;58.39
20971;BME280;10644;48.834;10.088;2022-09-13T00:06:36;96343.25;;;19.05;58.54
20971;BME280;10644;48.834;10.088;2022-09-13T00:09:02;96346.38;;;19.08;58.67
20971;BME280;10644;48.834;10.088;2022-09-13T00:11:30;96343.66;;;19.10;58.64
20971;BME280;10644;48.834;10.088;2022-09-13T00:14:06;96347.75;;;19.22;58.05
20971;BME280;10644;48.834;10.088;2022-09-13T00:16:42;96353.41;;;19.35;57.31
20971;BME280;10644;48.834;10.088;2022-09-13T00:19:08;96353.41;;;19.35;57.50
20971;BME280;10644;48.834;10.088;2022-09-13T00:21:33;96345.13;;;19.49;57.07
20971;BME280;10644;48.834;10.088;2022-09-13T00:24:26;96346.28;;;19.37;57.27
20971;BME280;10644;48.834;10.088;2022-09-13T00:26:59;96336.78;;;19.28;57.60
20971;BME280;10644;48.834;10.088;2022-09-13T00:29:26;96339.13;;;19.48;57.26
20971;BME280;10644;48.834;10.088;2022-09-13T00:31:52;96320.97;;;19.66;56.81
20971;BME280;10644;48.834;10.088;2022-09-13T00:34:42;96317.91;;;19.88;56.30
20971;BME280;10644;48.834;10.088;2022-09-13T00:37:16;96308.31;;;19.71;56.56
20971;BME280;10644;48.834;10.088;2022-09-13T00:40:00;96310.84;;;19.09;57.93
20971;BME280;10644;48.834;10.088;2022-09-13T00:42:32;96307.75;;;18.96;58.82
20971;BME280;10644;48.834;10.088;2022-09-13T00:45:17;96299.34;;;19.11;58.12
20971;BME280;10644;48.834;10.088;2022-09-13T00:48:05;96286.84;;;18.97;58.91
20971;BME280;10644;48.834;10.088;2022-09-13T00:50:39;96288.88;;;18.67;59.96
20971;BME280;10644;48.834;10.088;2022-09-13T00:56:26;96291.66;;;18.56;59.76
20971;BME280;10644;48.834;10.088;2022-09-13T00:59:17;96295.25;;;18.82;59.40
20971;BME280;10644;48.834;10.088;2022-09-13T01:01:54;96298.78;;;18.90;58.83
20971;BME280;10644;48.834;10.088;2022-09-13T01:04:24;96298.16;;;18.69;59.10
20971;BME280;10644;48.834;10.088;2022-09-13T01:10:03;96318.97;;;18.87;59.20
20971;BME280;10644;48.834;10.088;2022-09-13T01:15:42;96306.56;;;19.27;58.08
20971;BME280;10644;48.834;10.088;2022-09-13T01:18:18;96311.00;;;19.07;58.04
20971;BME280;10644;48.834;10.088;2022-09-13T01:26:34;96306.81;;;19.51;57.44
20971;BME280;10644;48.834;10.088;2022-09-13T01:32:34;96295.56;;;19.06;57.67
20971;BME280;10644;48.834;10.088;2022-09-13T01:38:19;96293.31;;;18.84;58.80
20971;BME280;10644;48.834;10.088;2022-09-13T01:44:36;96295.06;;;19.20;57.55
20971;BME280;10644;48.834;10.088;2022-09-13T01:56:34;96291.41;;;19.13;57.73
20971;BME280;10644;48.834;10.088;2022-09-13T01:59:36;96293.88;;;19.14;57.57
20971;BME280;10644;48.834;10.088;2022-09-13T02:02:17;96300.44;;;19.09;58.07
20971;BME280;10644;48.834;10.088;2022-09-13T02:04:54;96292.53;;;19.10;58.19
20971;BME280;10644;48.834;10.088;2022-09-13T02:07:45;96295.22;;;19.28;57.47
20971;BME280;10644;48.834;10.088;2022-09-13T02:10:31;96277.09;;;19.36;57.09
20971;BME280;10644;48.834;10.088;2022-09-13T02:13:13;96294.84;;;19.40;57.06
20971;BME280;10644;48.834;10.088;2022-09-13T02:22:30;96283.50;;;19.59;56.28
20971;BME280;10644;48.834;10.088;2022-09-13T02:28:09;96272.88;;;19.35;57.15
20971;BME280;10644;48.834;10.088;2022-09-13T02:30:56;96270.72;;;19.48;56.70
20971;BME280;10644;48.834;10.088;2022-09-13T02:33:38;96270.88;;;19.29;57.00
20971;BME280;10644;48.834;10.088;2022-09-13T02:36:16;96264.88;;;19.19;57.25
20971;BME280;10644;48.834;10.088;2022-09-13T02:38:50;96267.75;;;19.25;56.96
20971;BME280;10644;48.834;10.088;2022-09-13T02:41:24;96268.72;;;19.15;56.79
20971;BME280;10644;48.834;10.088;2022-09-13T02:43:57;96276.00;;;18.84;58.04
20971;BME280;10644;48.834;10.088;2022-09-13T02:54:41;96272.59;;;18.00;59.94
20971;BME280;10644;48.834;10.088;2022-09-13T02:57:20;96274.59;;;18.25;58.90
20971;BME280;10644;48.834;10.088;2022-09-13T02:59:51;96272.16;;;18.42;58.88
20971;BME280;10644;48.834;10.088;2022-09-13T03:02:26;96273.25;;;18.40;58.80
20971;BME280;10644;48.834;10.088;2022-09-13T03:04:56;96282.41;;;18.15;59.44
20971;BME280;10644;48.834;10.088;2022-09-13T03:07:22;96261.31;;;17.72;60.40
20971;BME280;10644;48.834;10.088;2022-09-13T03:09:53;96279.53;;;16.93;63.17
20971;BME280;10644;48.834;10.088;2022-09-13T03:30:08;96266.25;;;18.50;58.50
20971;BME280;10644;48.834;10.088;2022-09-13T03:35:31;96261.13;;;18.77;58.12
20971;BME280;10644;48.834;10.088;2022-09-13T03:38:17;96253.03;;;18.80;58.10
20971;BME280;10644;48.834;10.088;2022-09-13T03:46:53;96260.06;;;18.97;57.60
20971;BME280;10644;48.834;10.088;2022-09-13T03:49:52;96259.78;;;19.00;57.19
20971;BME280;10644;48.834;10.088;2022-09-13T03:52:18;96259.78;;;19.00;57.01
20971;BME280;10644;48.834;10.088;2022-09-13T03:54:46;96258.16;;;18.99;57.18
20971;BME280;10644;48.834;10.088;2022-09-13T03:57:17;96267.28;;;19.03;56.59
20971;BME280;10644;48.834;10.088;2022-09-13T03:59:55;96262.78;;;19.05;56.48
20971;BME280;10644;48.834;10.088;2022-09-13T04:02:26;96265.19;;;19.06;56.45
20971;BME280;10644;48.834;10.088;2022-09-13T04:05:10;96267.66;;;19.08;56.46
20971;BME280;10644;48.834;10.088;2022-09-13T04:07:41;96265.78;;;19.00;56.38
20971;BME280;10644;48.834;10.088;2022-09-13T04:10:19;96261.69;;;18.98;56.81
20971;BME280;10644;48.834;10.088;2022-09-13T04:12:59;96263.56;;;19.05;56.45
20971;BME280;10644;48.834;10.088;2022-09-13T04:15:30;96264.47;;;18.87;56.69
20971;BME280;10644;48.834;10.088;2022-09-13T04:18:07;96271.13;;;18.72;56.95
20971;BME280;10644;48.834;10.088;2022-09-13T04:20:59;96273.00;;;18.70;56.99
20971;BME280;10644;48.834;10.088;2022-09-13T04:23:27;96269.19;;;18.74;57.60
20971;BME280;10644;48.834;10.088;2022-09-13T04:26:03;96264.91;;;18.82;56.78
20971;BME280;10644;48.834;10.088;2022-09-13T04:28:29;96255.22;;;18.84;56.79
20971;BME280;10644;48.834;10.088;2022-09-13T04:31:14;96262.09;;;18.76;56.72
20971;BME280;10644;48.834;10.088;2022-09-13T04:33:45;96275.53;;;18.52;57.96
20971;BME280;10644;48.834;10.088;2022-09-13T04:36:22;96287.56;;;18.25;58.01
20971;BME280;10644;48.834;10.088;2022-09-13T04:38:58;96295.22;;;18.36;58.33
20971;BME280;10644;48.834;10.088;2022-09-13T04:41:31;96287.06;;;18.40;58.06
20971;BME280;10644;48.834;10.088;2022-09-13T04:44:04;96288.94;;;18.48;57.52
20971;BME280;10644;48.834;10.088;2022-09-13T04:46:47;96274.16;;;18.58;57.39
20971;BME280;10644;48.834;10.088;2022-09-13T04:49:20;96267.72;;;18.62;57.20
20971;BME280;10644;48.834;10.088;2022-09-13T04:52:16;96262.63;;;18.70;56.67
20971;BME280;10644;48.834;10.088;2022-09-13T04:54:41;96264.13;;;18.17;58.20
20971;BME280;10644;48.834;10.088;2022-09-13T04:57:14;96253.09;;;17.96;58.80
20971;BME280;10644;48.834;10.088;2022-09-13T04:59:54;96242.88;;;17.85;59.35
20971;BME280;10644;48.834;10.088;2022-09-13T05:02:26;96239.34;;;17.86;59.44
20971;BME280;10644;48.834;10.088;2022-09-13T05:04:58;96235.78;;;17.87;59.15
20971;BME280;10644;48.834;10.088;2022-09-13T05:07:25;96231.69;;;17.84;59.80
20971;BME280;10644;48.834;10.088;2022-09-13T05:10:11;96244.38;;;17.78;59.59
20971;BME280;10644;48.834;10.088;2022-09-13T05:13:00;96250.25;;;17.89;59.49
20971;BME280;10644;48.834;10.088;2022-09-13T05:15:26;96255.69;;;17.96;59.10
20971;BME280;10644;48.834;10.088;2022-09-13T05:18:04;96268.63;;;18.05;58.93
20971;BME280;10644;48.834;10.088;2022-09-13T05:20:30;96278.72;;;18.18;58.89
20971;BME280;10644;48.834;10.088;2022-09-13T05:22:57;96280.34;;;18.28;58.71
20971;BME280;10644;48.834;10.088;2022-09-13T05:25:35;96276.13;;;18.37;58.01
20971;BME280;10644;48.834;10.088;2022-09-13T05:28:06;96274.47;;;18.36;57.65
20971;BME280;10644;48.834;10.088;2022-09-13T05:30:31;96273.53;;;18.37;57.76
20971;BME280;10644;48.834;10.088;2022-09-13T05:33:12;96271.72;;;18.47;58.04
20971;BME280;10644;48.834;10.088;2022-09-13T05:38:55;96281.84;;;18.50;58.18
20971;BME280;10644;48.834;10.088;2022-09-13T05:41:35;96279.53;;;18.37;58.35
20971;BME280;10644;48.834;10.088;2022-09-13T05:44:13;96294.13;;;18.29;58.90
20971;BME280;10644;48.834;10.088;2022-09-13T05:46:45;96294.69;;;18.32;58.82
20971;BME280;10644;48.834;10.088;2022-09-13T05:49:17;96301.66;;;18.41;58.83
20971;BME280;10644;48.834;10.088;2022-09-13T05:51:53;96297.94;;;18.53;58.53
20971;BME280;10644;48.834;10.088;2022-09-13T05:54:33;96297.34;;;18.69;58.22
20971;BME280;10644;48.834;10.088;2022-09-13T05:57:31;96304.91;;;18.89;57.80
20971;BME280;10644;48.834;10.088;2022-09-13T06:00:06;96320.31;;;19.00;57.81
20971;BME280;10644;48.834;10.088;2022-09-13T06:02:33;96309.66;;;19.03;57.57
20971;BME280;10644;48.834;10.088;2022-09-13T06:05:00;96307.00;;;19.13;57.80
20971;BME280;10644;48.834;10.088;2022-09-13T06:07:33;96314.34;;;19.27;57.49
20971;BME280;10644;48.834;10.088;2022-09-13T06:10:00;96311.63;;;19.19;57.33
20971;BME280;10644;48.834;10.088;2022-09-13T06:12:49;96308.84;;;19.30;57.27
20971;BME280;10644;48.834;10.088;2022-09-13T06:15:33;96311.75;;;19.27;57.21
20971;BME280;10644;48.834;10.088;2022-09-13T06:18:13;96302.38;;;19.07;57.61
20971;BME280;10644;48.834;10.088;2022-09-13T06:20:46;96320.81;;;19.13;57.86
20971;BME280;10644;48.834;10.088;2022-09-13T06:26:27;96305.28;;;19.31;57.61
20971;BME280;10644;48.834;10.088;2022-09-13T06:28:57;96308.06;;;19.47;57.67
20971;BME280;10644;48.834;10.088;2022-09-13T06:31:38;96296.72;;;19.48;57.13
20971;BME280;10644;48.834;10.088;2022-09-13T06:34:17;96294.81;;;19.50;57.29
20971;BME280;10644;48.834;10.088;2022-09-13T06:36:51;96297.19;;;19.61;57.18
20971;BME280;10644;48.834;10.088;2022-09-13T06:39:48;96296.00;;;19.73;57.05
20971;BME280;10644;48.834;10.088;2022-09-13T06:42:48;96297.34;;;19.77;56.93
20971;BME280;10644;48.834;10.088;2022-09-13T06:45:33;96297.03;;;19.80;56.98
20971;BME280;10644;48.834;10.088;2022-09-13T06:48:15;96302.25;;;19.80;56.82
20971;BME280;10644;48.834;10.088;2022-09-13T06:51:14;96307.50;;;19.88;56.86
20971;BME280;10644;48.834;10.088;2022-09-13T06:53:47;96305.00;;;19.96;56.58
20971;BME280;10644;48.834;10.088;2022-09-13T06:56:23;96304.31;;;19.94;56.77
20971;BME280;10644;48.834;10.088;2022-09-13T06:58:54;96306.34;;;20.00;57.06
20971;BME280;10644;48.834;10.088;2022-09-13T07:01:43;96306.16;;;20.11;56.92
20971;BME280;10644;48.834;10.088;2022-09-13T07:07:50;96315.44;;;20.39;56.35
20971;BME280;10644;48.834;10.088;2022-09-13T07:20:52;96293.19;;;20.19;57.65
20971;BME280;10644;48.834;10.088;2022-09-13T07:26:40;96290.56;;;20.36;57.32
20971;BME280;10644;48.834;10.088;2022-09-13T07:29:37;96298.47;;;20.52;56.95
20971;BME280;10644;48.834;10.088;2022-09-13T07:32:10;96289.53;;;20.55;56.81
20971;BME280;10644;48.834;10.088;2022-09-13T07:34:48;96283.81;;;20.77;56.49
20971;BME280;10644;48.834;10.088;2022-09-13T07:37:16;96278.31;;;20.80;56.32
20971;BME280;10644;48.834;10.088;2022-09-13T07:43:04;96267.72;;;21.07;55.86
20971;BME280;10644;48.834;10.088;2022-09-13T07:45:30;96269.72;;;21.13;55.82
20971;BME280;10644;48.834;10.088;2022-09-13T07:48:14;96266.19;;;21.30;55.39
20971;BME280;10644;48.834;10.088;2022-09-13T07:51:04;96263.94;;;21.35;55.37
20971;BME280;10644;48.834;10.088;2022-09-13T07:53:45;96273.72;;;21.41;55.63
20971;BME280;10644;48.834;10.088;2022-09-13T07:56:17;96286.59;;;21.50;55.48
20971;BME280;10644;48.834;10.088;2022-09-13T07:58:45;96277.00;;;21.59;56.25
20971;BME280;10644;48.834;10.088;2022-09-13T08:01:34;96270.38;;;21.80;55.26
20971;BME280;10644;48.834;10.088;2022-09-13T08:04:16;96274.47;;;21.83;54.81
20971;BME280;10644;48.834;10.088;2022-09-13T08:07:02;96272.69;;;21.91;54.99
20971;BME280;10644;48.834;10.088;2022-09-13T08:09:28;96258.16;;;22.13;55.08
20971;BME280;10644;48.834;10.088;2022-09-13T08:11:57;96268.94;;;22.42;54.83
20971;BME280;10644;48.834;10.088;2022-09-13T08:14:27;96265.94;;;22.69;54.23
20971;BME280;10644;48.834;10.088;2022-09-13T08:17:09;96257.06;;;22.94;54.41
20971;BME280;10644;48.834;10.088;2022-09-13T08:19:39;96277.56;;;23.13;54.08
20971;BME280;10644;48.834;10.088;2022-09-13T08:22:28;96267.41;;;23.26;54.05
20971;BME280;10644;48.834;10.088;2022-09-13T08:24:59;96267.78;;;23.15;53.21
20971;BME280;10644;48.834;10.088;2022-09-13T08:27:39;96270.31;;;23.39;53.04
20971;BME280;10644;48.834;10.088;2022-09-13T08:30:18;96270.16;;;23.63;52.00
20971;BME280;10644;48.834;10.088;2022-09-13T08:32:50;96271.47;;;23.97;51.67
20971;BME280;10644;48.834;10.088;2022-09-13T08:35:33;96279.38;;;24.12;51.15
20971;BME280;10644;48.834;10.088;2022-09-13T08:37:59;96268.81;;;24.20;50.23
20971;BME280;10644;48.834;10.088;2022-09-13T08:46:43;96267.13;;;24.64;50.72
20971;BME280;10644;48.834;10.088;2022-09-13T08:49:40;96259.56;;;24.69;49.59
20971;BME280;10644;48.834;10.088;2022-09-13T08:52:39;96266.13;;;24.79;48.37
20971;BME280;10644;48.834;10.088;2022-09-13T09:04:53;96266.78;;;24.96;47.65
20971;BME280;10644;48.834;10.088;2022-09-13T09:07:25;96267.50;;;25.04;47.61
20971;BME280;10644;48.834;10.088;2022-09-13T09:09:59;96266.84;;;25.17;47.30
20971;BME280;10644;48.834;10.088;2022-09-13T09:12:38;96255.91;;;25.42;45.51
20971;BME280;10644;48.834;10.088;2022-09-13T09:15:23;96260.75;;;25.60;43.51
20971;BME280;10644;48.834;10.088;2022-09-13T09:24:08;96256.66;;;25.72;41.96
20971;BME280;10644;48.834;10.088;2022-09-13T09:26:36;96248.44;;;25.81;42.07
20971;BME280;10644;48.834;10.088;2022-09-13T09:29:25;96261.19;;;25.99;42.14
20971;BME280;10644;48.834;10.088;2022-09-13T09:47:43;96243.63;;;26.48;40.98
20971;BME280;10644;48.834;10.088;2022-09-13T09:50:25;96246.13;;;26.35;40.76
20971;BME280;10644;48.834;10.088;2022-09-13T09:53:46;96250.63;;;26.41;40.25
20971;BME280;10644;48.834;10.088;2022-09-13T09:56:35;96238.25;;;26.56;41.46
20971;BME280;10644;48.834;10.088;2022-09-13T09:59:27;96242.19;;;26.66;40.67
20971;BME280;10644;48.834;10.088;2022-09-13T10:05:24;96236.59;;;26.82;40.67
20971;BME280;10644;48.834;10.088;2022-09-13T10:11:02;96240.25;;;26.54;40.21
20971;BME280;10644;48.834;10.088;2022-09-13T10:13:31;96238.31;;;26.62;40.17
20971;BME280;10644;48.834;10.088;2022-09-13T10:16:04;96245.31;;;26.83;40.02
20971;BME280;10644;48.834;10.088;2022-09-13T10:18:35;96221.44;;;26.84;38.46
20971;BME280;10644;48.834;10.088;2022-09-13T10:24:16;96219.63;;;27.19;37.17
20971;BME280;10644;48.834;10.088;2022-09-13T10:37:28;96222.41;;;27.11;37.46
20971;BME280;10644;48.834;10.088;2022-09-13T10:43:34;96223.53;;;27.29;38.11
20971;BME280;10644;48.834;10.088;2022-09-13T10:46:12;96226.03;;;27.57;37.32
20971;BME280;10644;48.834;10.088;2022-09-13T10:48:52;96237.69;;;27.95;37.33
20971;BME280;10644;48.834;10.088;2022-09-13T10:57:34;96229.63;;;28.68;37.60
20971;BME280;10644;48.834;10.088;2022-09-13T11:00:06;96219.44;;;28.97;36.10
20971;BME280;10644;48.834;10.088;2022-09-13T11:06:08;96217.38;;;28.93;36.50
20971;BME280;10644;48.834;10.088;2022-09-13T11:08:59;96215.34;;;28.88;35.57
20971;BME280;10644;48.834;10.088;2022-09-13T11:11:58;96202.72;;;29.10;35.68
20971;BME280;10644;48.834;10.088;2022-09-13T11:31:51;96205.19;;;29.55;34.76
20971;BME280;10644;48.834;10.088;2022-09-13T11:34:50;96200.72;;;29.56;34.45
20971;BME280;10644;48.834;10.088;2022-09-13T11:47:00;96186.34;;;30.07;32.83
20971;BME280;10644;48.834;10.088;2022-09-13T12:12:27;96184.13;;;31.14;32.92
20971;BME280;10644;48.834;10.088;2022-09-13T12:15:01;96176.78;;;30.98;32.58
20971;BME280;10644;48.834;10.088;2022-09-13T12:17:39;96187.66;;;30.90;31.52
20971;BME280;10644;48.834;10.088;2022-09-13T12:20:17;96182.34;;;30.90;32.04
20971;BME280;10644;48.834;10.088;2022-09-13T12:22:52;96174.66;;;31.06;32.48
20971;BME280;10644;48.834;10.088;2022-09-13T12:25:42;96191.03;;;31.15;32.90
20971;BME280;10644;48.834;10.088;2022-09-13T12:31:23;96202.28;;;30.50;35.15
20971;BME280;10644;48.834;10.088;2022-09-13T12:34:19;96193.78;;;30.48;35.59
20971;BME280;10644;48.834;10.088;2022-09-13T12:43:41;96179.97;;;30.88;34.73
20971;BME280;10644;48.834;10.088;2022-09-13T13:01:32;96167.50;;;30.71;34.87
20971;BME280;10644;48.834;10.088;2022-09-13T13:07:04;96167.56;;;30.82;34.93
20971;BME280;10644;48.834;10.088;2022-09-13T13:09:51;96169.06;;;30.78;35.28
20971;BME280;10644;48.834;10.088;2022-09-13T13:12:37;96176.34;;;30.83;35.44
20971;BME280;10644;48.834;10.088;2022-09-13T13:17:51;96172.28;;;30.38;35.73
20971;BME280;10644;48.834;10.088;2022-09-13T13:27:19;96159.72;;;30.33;35.65
20971;BME280;10644;48.834;10.088;2022-09-13T13:36:48;96142.75;;;30.83;35.57
20971;BME280;10644;48.834;10.088;2022-09-13T13:41:54;96138.41;;;31.25;34.69
20971;BME280;10644;48.834;10.088;2022-09-13T13:50:25;96124.34;;;31.36;34.61
20971;BME280;10644;48.834;10.088;2022-09-13T13:59:40;96086.91;;;31.03;34.09
20971;BME280;10644;48.834;10.088;2022-09-13T14:20:23;96068.56;;;30.54;35.93
20971;BME280;10644;48.834;10.088;2022-09-13T14:26:36;96070.22;;;30.30;36.43
20971;BME280;10644;48.834;10.088;2022-09-13T14:29:14;96073.03;;;30.35;36.19
20971;BME280;10644;48.834;10.088;2022-09-13T14:32:05;96062.41;;;30.42;35.99
20971;BME280;10644;48.834;10.088;2022-09-13T14:34:50;96059.22;;;30.33;36.44
20971;BME280;10644;48.834;10.088;2022-09-13T14:37:19;96071.78;;;30.20;36.81
20971;BME280;10644;48.834;10.088;2022-09-13T14:43:19;96066.19;;;30.28;37.03
20971;BME280;10644;48.834;10.088;2022-09-13T14:45:49;96058.88;;;30.30;36.88
20971;BME280;10644;48.834;10.088;2022-09-13T14:55:10;96072.97;;;30.60;36.13
20971;BME280;10644;48.834;10.088;2022-09-13T14:58:00;96068.72;;;30.59;35.91
20971;BME280;10644;48.834;10.088;2022-09-13T15:00:30;96071.13;;;30.60;36.01
20971;BME280;10644;48.834;10.088;2022-09-13T15:06:04;96058.56;;;30.20;36.03
20971;BME280;10644;48.834;10.088;2022-09-13T15:11:25;96055.63;;;30.28;35.86
20971;BME280;10644;48.834;10.088;2022-09-13T15:17:21;96054.69;;;29.98;36.50
20971;BME280;10644;48.834;10.088;2022-09-13T15:20:10;96056.59;;;29.91;36.66
20971;BME280;10644;48.834;10.088;2022-09-13T15:22:50;96050.13;;;30.05;36.56
20971;BME280;10644;48.834;10.088;2022-09-13T15:25:28;96050.78;;;30.25;36.07
20971;BME280;10644;48.834;10.088;2022-09-13T15:27:59;96060.78;;;30.41;35.77
20971;BME280;10644;48.834;10.088;2022-09-13T15:30:38;96051.22;;;30.58;35.57
20971;BME280;10644;48.834;10.088;2022-09-13T15:35:46;96052.53;;;30.49;35.60
20971;BME280;10644;48.834;10.088;2022-09-13T15:38:29;96061.06;;;30.51;35.54
20971;BME280;10644;48.834;10.088;2022-09-13T15:41:21;96058.34;;;30.39;35.54
20971;BME280;10644;48.834;10.088;2022-09-13T15:43:50;96053.53;;;30.12;35.77
20971;BME280;10644;48.834;10.088;2022-09-13T15:46:21;96049.28;;;30.11;36.01
20971;BME280;10644;48.834;10.088;2022-09-13T15:48:54;96048.31;;;30.05;35.78
20971;BME280;10644;48.834;10.088;2022-09-13T15:51:25;96042.75;;;30.13;35.57
20971;BME280;10644;48.834;10.088;2022-09-13T15:54:01;96037.09;;;30.28;35.62
20971;BME280;10644;48.834;10.088;2022-09-13T15:56:33;96033.06;;;30.25;35.78
20971;BME280;10644;48.834;10.088;2022-09-13T15:59:15;96037.78;;;30.23;35.72
20971;BME280;10644;48.834;10.088;2022-09-13T16:02:00;96029.16;;;30.10;36.09
20971;BME280;10644;48.834;10.088;2022-09-13T16:04:32;96032.19;;;29.89;36.06
20971;BME280;10644;48.834;10.088;2022-09-13T16:06:57;96026.31;;;29.87;36.06
20971;BME280;10644;48.834;10.088;2022-09-13T16:09:30;96026.75;;;29.84;36.11
20971;BME280;10644;48.834;10.088;2022-09-13T16:12:02;96009.03;;;29.66;36.66
20971;BME280;10644;48.834;10.088;2022-09-13T16:14:27;96012.78;;;29.52;37.22
20971;BME280;10644;48.834;10.088;2022-09-13T16:17:04;96025.13;;;29.34;37.38
20971;BME280;10644;48.834;10.088;2022-09-13T16:19:37;96007.66;;;29.33;37.72
20971;BME280;10644;48.834;10.088;2022-09-13T16:22:11;96008.19;;;29.17;38.56
20971;BME280;10644;48.834;10.088;2022-09-13T16:24:48;96001.41;;;29.27;40.53
20971;BME280;10644;48.834;10.088;2022-09-13T16:27:41;96003.44;;;29.50;39.92
20971;BME280;10644;48.834;10.088;2022-09-13T16:30:17;95993.03;;;29.61;40.43
20971;BME280;10644;48.834;10.088;2022-09-13T16:32:45;95994.13;;;29.72;40.87
20971;BME280;10644;48.834;10.088;2022-09-13T16:35:11;95993.88;;;29.80;40.80
20971;BME280;10644;48.834;10.088;2022-09-13T16:37:59;95987.34;;;29.82;40.38
20971;BME280;10644;48.834;10.088;2022-09-13T16:40:57;95982.84;;;29.83;40.15
20971;BME280;10644;48.834;10.088;2022-09-13T16:43:28;95980.66;;;29.80;40.61
20971;BME280;10644;48.834;10.088;2022-09-13T16:46:10;95981.69;;;29.79;40.91
20971;BME280;10644;48.834;10.088;2022-09-13T16:48:40;95985.94;;;29.80;41.55
20971;BME280;10644;48.834;10.088;2022-09-13T16:51:22;95980.94;;;29.72;41.15
20971;BME280;10644;48.834;10.088;2022-09-13T16:53:53;95977.72;;;29.70;41.86
20971;BME280;10644;48.834;10.088;2022-09-13T16:56:32;95968.00;;;29.64;41.82
20971;BME280;10644;48.834;10.088;2022-09-13T16:59:02;95958.31;;;29.58;42.00
20971;BME280;10644;48.834;10.088;2022-09-13T17:01:34;95958.31;;;29.58;42.03
20971;BME280;10644;48.834;10.088;2022-09-13T17:04:01;95959.94;;;29.52;41.97
20971;BME280;10644;48.834;10.088;2022-09-13T17:06:46;95953.34;;;29.19;42.15
20971;BME280;10644;48.834;10.088;2022-09-13T17:13:03;95959.59;;;28.18;43.49
20971;BME280;10644;48.834;10.088;2022-09-13T17:15:46;95958.81;;;28.05;43.02
20971;BME280;10644;48.834;10.088;2022-09-13T17:18:39;95955.22;;;27.93;43.10
20971;BME280;10644;48.834;10.088;2022-09-13T17:21:07;95955.25;;;27.80;42.81
20971;BME280;10644;48.834;10.088;2022-09-13T17:23:32;95955.63;;;27.77;43.40
20971;BME280;10644;48.834;10.088;2022-09-13T17:26:04;95960.28;;;27.75;42.95
20971;BME280;10644;48.834;10.088;2022-09-13T17:28:32;95954.97;;;28.01;43.02
20971;BME280;10644;48.834;10.088;2022-09-13T17:31:05;95958.41;;;28.08;42.96
20971;BME280;10644;48.834;10.088;2022-09-13T17:33:55;95950.66;;;28.19;42.27
20971;BME280;10644;48.834;10.088;2022-09-13T17:36:31;95944.56;;;28.25;42.70
20971;BME280;10644;48.834;10.088;2022-09-13T17:39:12;95958.22;;;28.03;43.29
20971;BME280;10644;48.834;10.088;2022-09-13T17:47:54;95962.44;;;28.17;43.08
20971;BME280;10644;48.834;10.088;2022-09-13T17:50:34;95956.97;;;28.18;42.89
20971;BME280;10644;48.834;10.088;2022-09-13T17:53:35;95956.53;;;28.15;43.09
20971;BME280;10644;48.834;10.088;2022-09-13T17:56:29;95963.47;;;28.03;43.16
20971;BME280;10644;48.834;10.088;2022-09-13T17:59:16;95962.69;;;27.96;43.50
20971;BME280;10644;48.834;10.088;2022-09-13T18:05:13;95971.06;;;27.54;45.00
20971;BME280;10644;48.834;10.088;2022-09-13T18:08:11;95971.91;;;27.28;44.53
20971;BME280;10644;48.834;10.088;2022-09-13T18:11:12;95965.81;;;27.34;44.45
20971;BME280;10644;48.834;10.088;2022-09-13T18:13:46;95967.03;;;27.25;44.67
20971;BME280;10644;48.834;10.088;2022-09-13T18:16:26;95972.03;;;27.14;45.14
20971;BME280;10644;48.834;10.088;2022-09-13T18:18:54;95967.00;;;27.06;45.12
20971;BME280;10644;48.834;10.088;2022-09-13T18:24:41;95968.22;;;27.10;45.18
20971;BME280;10644;48.834;10.088;2022-09-13T18:27:09;95972.25;;;26.93;45.46
20971;BME280;10644;48.834;10.088;2022-09-13T18:29:53;95971.81;;;26.76;45.92
20971;BME280;10644;48.834;10.088;2022-09-13T18:32:31;95973.84;;;26.74;45.75
20971;BME280;10644;48.834;10.088;2022-09-13T18:38:21;95974.22;;;26.65;46.33
20971;BME280;10644;48.834;10.088;2022-09-13T18:44:25;95981.69;;;26.61;46.07
20971;BME280;10644;48.834;10.088;2022-09-13T18:47:29;95984.47;;;26.47;46.68
20971;BME280;10644;48.834;10.088;2022-09-13T18:50:07;95986.25;;;26.46;47.05
20971;BME280;10644;48.834;10.088;2022-09-13T18:55:25;95985.03;;;26.42;47.21
20971;BME280;10644;48.834;10.088;2022-09-13T18:57:50;95979.34;;;26.39;47.59
20971;BME280;10644;48.834;10.088;2022-09-13T19:00:28;95985.41;;;26.33;47.52
20971;BME280;10644;48.834;10.088;2022-09-13T19:02:54;95986.41;;;26.32;47.86
20971;BME280;10644;48.834;10.088;2022-09-13T19:05:36;95986.59;;;26.30;47.53
20971;BME280;10644;48.834;10.088;2022-09-13T19:08:12;95987.44;;;26.31;47.51
20971;BME280;10644;48.834;10.088;2022-09-13T19:11:04;95993.06;;;26.28;47.91
20971;BME280;10644;48.834;10.088;2022-09-13T19:13:47;95999.28;;;26.20;47.78
20971;BME280;10644;48.834;10.088;2022-09-13T19:16:20;95992.19;;;26.14;48.01
20971;BME280;10644;48.834;10.088;2022-09-13T19:19:16;95999.88;;;26.16;48.52
20971;BME280;10644;48.834;10.088;2022-09-13T19:21:44;96000.06;;;26.08;48.83
20971;BME280;10644;48.834;10.088;2022-09-13T19:24:19;95995.22;;;25.77;49.50
20971;BME280;10644;48.834;10.088;2022-09-13T19:26:56;95995.78;;;25.45;49.97
20971;BME280;10644;48.834;10.088;2022-09-13T19:29:34;96001.84;;;25.46;50.31
20971;BME280;10644;48.834;10.088;2022-09-13T19:32:06;95995.22;;;25.50;50.18
20971;BME280;10644;48.834;10.088;2022-09-13T19:34:43;95996.03;;;25.50;50.14
20971;BME280;10644;48.834;10.088;2022-09-13T19:37:44;96000.38;;;25.37;50.45
20971;BME280;10644;48.834;10.088;2022-09-13T19:43:53;96008.69;;;25.68;49.63